createdAt,value
2022-09-16T00:00:20.636Z,12.12
2022-09-16T00:02:50.828Z,12.36
2022-09-16T00:05:20.614Z,12.53
2022-09-16T00:07:50.440Z,12.59
2022-09-16T00:10:21.691Z,12.77
2022-09-16T00:12:54.995Z,12.78
2022-09-16T00:15:25.232Z,12.76
2022-09-16T00:17:55.106Z,12.85
2022-09-16T00:20:25.291Z,12.92
2022-09-16T00:22:55.759Z,12.92
2022-09-16T00:25:25.704Z,12.99
2022-09-16T00:27:59.086Z,13.18
2022-09-16T00:30:29.457Z,13.18
2022-09-16T00:32:59.213Z,13.21
2022-09-16T00:35:29.641Z,13.21
2022-09-16T00:37:59.973Z,13.21
2022-09-16T00:40:30.162Z,13.17
2022-09-16T00:43:02.964Z,13.05
2022-09-16T00:45:36.673Z,12.96
2022-09-16T00:48:08.528Z,12.91
2022-09-16T00:50:41.122Z,12.86
2022-09-16T00:53:17.295Z,12.84
2022-09-16T00:55:47.895Z,12.78
2022-09-16T00:58:25.150Z,12.74
2022-09-16T01:00:54.985Z,12.67
2022-09-16T01:03:28.662Z,12.63
2022-09-16T01:05:58.623Z,12.66
2022-09-16T01:08:28.443Z,12.68
2022-09-16T01:10:58.467Z,12.69
2022-09-16T01:13:31.868Z,12.69
2022-09-16T01:16:08.300Z,12.78
2022-09-16T01:18:46.231Z,12.81
2022-09-16T01:21:31.517Z,12.61
2022-09-16T01:24:37.128Z,12.40
2022-09-16T01:27:43.338Z,12.18
2022-09-16T01:30:24.494Z,11.95
2022-09-16T01:33:05.794Z,11.84
2022-09-16T01:35:48.776Z,11.73
2022-09-16T01:38:31.743Z,11.74
2022-09-16T01:41:13.599Z,11.67
2022-09-16T01:43:55.212Z,11.64
2022-09-16T01:46:33.144Z,11.64
2022-09-16T01:49:20.419Z,11.65
2022-09-16T01:51:56.094Z,11.64
2022-09-16T01:54:32.455Z,11.63
2022-09-16T01:57:08.382Z,11.62
2022-09-16T01:59:45.271Z,11.58
2022-09-16T02:02:20.370Z,11.58
2022-09-16T02:04:59.252Z,11.58
2022-09-16T02:07:33.348Z,11.57
2022-09-16T02:10:12.305Z,11.61
2022-09-16T02:12:47.188Z,11.59
2022-09-16T02:15:22.414Z,11.56
2022-09-16T02:17:58.230Z,11.59
2022-09-16T02:20:34.935Z,11.56
2022-09-16T02:23:09.665Z,11.61
2022-09-16T02:25:44.377Z,11.67
2022-09-16T02:28:19.319Z,11.63
2022-09-16T02:30:54.951Z,11.64
2022-09-16T02:33:26.607Z,11.66
2022-09-16T02:35:59.632Z,11.62
2022-09-16T02:38:35.985Z,11.62
2022-09-16T02:41:06.378Z,11.52
2022-09-16T02:43:36.501Z,11.47
2022-09-16T02:46:14.503Z,11.40
2022-09-16T02:48:53.691Z,11.41
2022-09-16T02:51:34.582Z,11.34
2022-09-16T02:54:09.156Z,11.31
2022-09-16T02:56:40.813Z,11.32
2022-09-16T02:59:14.676Z,11.33
2022-09-16T03:01:46.507Z,11.26
2022-09-16T03:04:18.502Z,11.21
2022-09-16T03:06:51.437Z,11.18
2022-09-16T03:09:24.046Z,11.18
2022-09-16T03:12:26.394Z,11.10
2022-09-16T03:15:36.578Z,11.09
2022-09-16T03:18:22.883Z,11.08
2022-09-16T03:21:01.711Z,11.06
2022-09-16T03:23:47.440Z,11.05
2022-09-16T03:26:28.334Z,11.07
2022-09-16T03:29:08.520Z,11.09
2022-09-16T03:31:47.252Z,11.09
2022-09-16T03:34:23.451Z,11.09
2022-09-16T03:36:59.326Z,11.11
2022-09-16T03:39:32.408Z,11.14
2022-09-16T03:42:04.423Z,11.16
2022-09-16T03:44:36.026Z,11.13
2022-09-16T03:47:06.398Z,11.10
2022-09-16T03:49:36.086Z,11.09
2022-09-16T03:52:08.680Z,11.07
2022-09-16T03:54:41.532Z,11.09
2022-09-16T03:57:12.749Z,11.12
2022-09-16T03:59:42.794Z,11.12
2022-09-16T04:02:13.376Z,11.18
2022-09-16T04:04:43.382Z,11.19
2022-09-16T04:07:17.356Z,11.19
2022-09-16T04:09:49.770Z,11.18
2022-09-16T04:12:19.528Z,11.19
2022-09-16T04:14:49.309Z,11.17
2022-09-16T04:17:19.110Z,11.11
2022-09-16T04:19:48.781Z,11.08
2022-09-16T04:22:18.499Z,11.05
2022-09-16T04:24:50.977Z,10.99
2022-09-16T04:27:20.707Z,10.96
2022-09-16T04:29:50.545Z,10.92
2022-09-16T04:32:20.374Z,10.87
2022-09-16T04:34:49.910Z,10.83
2022-09-16T04:37:19.651Z,10.81
2022-09-16T04:39:51.965Z,10.80
2022-09-16T04:42:21.630Z,10.79
2022-09-16T04:44:51.474Z,10.80
2022-09-16T04:47:21.206Z,10.84
2022-09-16T04:49:51.166Z,10.85
2022-09-16T04:52:21.034Z,10.85
2022-09-16T04:54:58.209Z,10.88
2022-09-16T04:57:28.103Z,10.89
2022-09-16T04:59:57.722Z,10.86
2022-09-16T05:02:28.759Z,10.77
2022-09-16T05:04:58.567Z,10.71
2022-09-16T05:07:28.377Z,10.72
2022-09-16T05:10:00.656Z,10.77
2022-09-16T05:12:30.266Z,10.76
2022-09-16T05:15:00.136Z,10.74
2022-09-16T05:17:50.358Z,10.75
2022-09-16T05:20:20.815Z,10.71
2022-09-16T05:22:52.681Z,10.70
2022-09-16T05:25:25.156Z,10.69
2022-09-16T05:27:54.969Z,10.67
2022-09-16T05:30:26.214Z,10.68
2022-09-16T05:32:56.895Z,10.68
2022-09-16T05:35:26.622Z,10.70
2022-09-16T05:37:56.313Z,10.67
2022-09-16T05:40:29.239Z,10.73
2022-09-16T05:42:58.919Z,10.78
2022-09-16T05:45:32.251Z,10.90
2022-09-16T05:48:08.271Z,11.14
2022-09-16T05:50:38.186Z,11.32
2022-09-16T05:53:07.795Z,11.35
2022-09-16T05:55:40.318Z,11.33
2022-09-16T05:58:09.986Z,11.34
2022-09-16T06:00:39.692Z,11.36
2022-09-16T06:03:09.213Z,11.36
2022-09-16T06:05:42.532Z,11.41
2022-09-16T06:08:14.795Z,11.40
2022-09-16T06:10:47.129Z,11.33
2022-09-16T06:13:16.797Z,11.23
2022-09-16T06:15:57.001Z,11.25
2022-09-16T06:18:37.594Z,11.03
2022-09-16T06:21:10.526Z,10.92
2022-09-16T06:23:49.520Z,10.78
2022-09-16T06:26:25.668Z,10.74
2022-09-16T06:28:56.575Z,10.69
2022-09-16T06:31:28.679Z,10.62
2022-09-16T06:33:59.047Z,10.58
2022-09-16T06:36:30.936Z,10.58
2022-09-16T06:39:00.960Z,10.60
2022-09-16T06:41:35.198Z,10.64
2022-09-16T06:44:05.353Z,10.72
2022-09-16T06:46:35.103Z,10.79
2022-09-16T06:49:06.454Z,10.85
2022-09-16T06:51:37.680Z,10.92
2022-09-16T06:54:10.506Z,11.03
2022-09-16T06:56:42.973Z,11.19
2022-09-16T06:59:14.465Z,11.35
2022-09-16T07:01:47.460Z,11.61
2022-09-16T07:04:17.121Z,11.87
2022-09-16T07:09:36.676Z,12.60
2022-09-16T07:12:09.599Z,13.09
2022-09-16T07:14:39.438Z,13.67
2022-09-16T07:17:09.417Z,13.95
2022-09-16T07:19:39.144Z,14.22
2022-09-16T07:22:08.857Z,14.10
2022-09-16T07:24:38.586Z,13.41
2022-09-16T07:27:10.829Z,13.12
2022-09-16T07:29:40.857Z,12.67
2022-09-16T07:32:10.464Z,12.44
2022-09-16T07:34:40.218Z,12.16
2022-09-16T07:37:10.050Z,12.07
2022-09-16T07:39:39.954Z,11.99
2022-09-16T07:42:12.418Z,11.96
2022-09-16T07:44:42.085Z,12.21
2022-09-16T07:47:11.845Z,12.20
2022-09-16T07:49:41.558Z,13.02
2022-09-16T07:52:11.235Z,12.95
2022-09-16T07:54:40.938Z,13.24
2022-09-16T07:57:13.425Z,13.57
2022-09-16T07:59:43.224Z,14.13
2022-09-16T08:02:13.223Z,13.98
2022-09-16T08:04:43.066Z,14.52
2022-09-16T08:07:13.209Z,14.79
2022-09-16T08:09:49.909Z,15.29
2022-09-16T08:12:23.859Z,15.44
2022-09-16T08:14:54.290Z,14.97
2022-09-16T08:17:24.171Z,14.34
2022-09-16T08:19:53.727Z,13.70
2022-09-16T08:22:24.054Z,13.27
2022-09-16T08:24:53.789Z,12.96
2022-09-16T08:27:26.825Z,12.68
2022-09-16T08:29:56.885Z,12.56
2022-09-16T08:32:27.077Z,12.43
2022-09-16T08:34:57.196Z,12.49
2022-09-16T08:37:27.055Z,12.49
2022-09-16T08:39:57.293Z,12.55
2022-09-16T08:42:54.908Z,12.64
2022-09-16T08:45:32.440Z,12.70
2022-09-16T08:48:15.537Z,12.57
2022-09-16T08:50:49.435Z,12.53
2022-09-16T08:53:24.907Z,12.67
2022-09-16T08:55:55.523Z,12.43
2022-09-16T08:58:32.909Z,12.15
2022-09-16T09:01:07.768Z,12.09
2022-09-16T09:03:41.429Z,11.98
2022-09-16T09:06:24.171Z,12.05
2022-09-16T09:09:04.546Z,12.12
2022-09-16T09:11:40.266Z,12.24
2022-09-16T09:14:24.754Z,12.22
2022-09-16T09:17:04.626Z,12.24
2022-09-16T09:19:46.473Z,12.40
2022-09-16T09:22:29.086Z,12.53
2022-09-16T09:25:20.314Z,12.55
2022-09-16T09:27:59.434Z,12.53
2022-09-16T09:30:31.908Z,12.45
2022-09-16T09:33:44.250Z,12.22
2022-09-16T09:36:40.853Z,11.94
2022-09-16T09:39:28.361Z,11.77
2022-09-16T09:42:06.221Z,11.57
2022-09-16T09:44:50.963Z,11.59
2022-09-16T09:47:29.261Z,11.63
2022-09-16T09:50:01.149Z,11.65
2022-09-16T09:52:38.966Z,11.92
2022-09-16T09:55:18.493Z,12.62
2022-09-16T09:58:07.962Z,13.46
2022-09-16T10:00:37.765Z,13.99
2022-09-16T10:03:15.035Z,14.40
2022-09-16T10:05:45.290Z,14.56
2022-09-16T10:08:22.594Z,14.70
2022-09-16T10:10:54.527Z,14.62
2022-09-16T10:13:26.914Z,14.31
2022-09-16T10:16:10.762Z,13.88
2022-09-16T10:18:43.178Z,13.56
2022-09-16T10:21:16.206Z,13.40
2022-09-16T10:23:57.575Z,13.23
2022-09-16T10:26:28.764Z,13.10
2022-09-16T10:29:00.921Z,12.74
2022-09-16T10:31:35.125Z,12.82
2022-09-16T10:34:16.229Z,12.87
2022-09-16T10:36:46.139Z,13.08
2022-09-16T10:39:27.495Z,13.28
2022-09-16T10:41:57.443Z,13.44
2022-09-16T10:44:30.236Z,13.75
2022-09-16T10:47:02.570Z,14.07
2022-09-16T10:49:42.783Z,14.58
2022-09-16T10:52:20.297Z,14.64
2022-09-16T10:54:50.749Z,14.92
2022-09-16T10:57:29.441Z,14.78
2022-09-16T11:00:06.288Z,14.93
2022-09-16T11:03:01.065Z,15.26
2022-09-16T11:05:39.670Z,14.97
2022-09-16T11:08:18.668Z,15.20
2022-09-16T11:10:56.749Z,15.09
2022-09-16T11:13:39.675Z,15.57
2022-09-16T11:16:27.167Z,15.63
2022-09-16T11:19:04.463Z,16.12
2022-09-16T11:21:56.140Z,15.85
2022-09-16T11:25:01.462Z,15.79
2022-09-16T11:27:45.219Z,15.54
2022-09-16T11:30:17.265Z,14.85
2022-09-16T11:33:09.378Z,14.83
2022-09-16T11:36:09.236Z,14.57
2022-09-16T11:38:52.827Z,13.99
2022-09-16T11:41:30.605Z,13.82
2022-09-16T11:44:24.621Z,13.84
2022-09-16T11:47:05.986Z,14.25
2022-09-16T11:49:55.251Z,14.23
2022-09-16T11:52:40.908Z,14.07
2022-09-16T11:55:32.770Z,14.06
2022-09-16T11:58:07.214Z,13.99
2022-09-16T12:00:41.476Z,13.98
2022-09-16T12:03:24.013Z,13.90
2022-09-16T12:06:03.944Z,13.87
2022-09-16T12:08:38.306Z,14.06
2022-09-16T12:11:22.755Z,14.15
2022-09-16T12:14:05.435Z,14.50
2022-09-16T12:16:42.093Z,14.66
2022-09-16T12:19:17.749Z,14.69
2022-09-16T12:21:57.878Z,15.04
2022-09-16T12:24:35.627Z,15.29
2022-09-16T12:27:12.717Z,15.27
2022-09-16T12:29:49.897Z,14.82
2022-09-16T12:32:26.691Z,14.72
2022-09-16T12:35:01.839Z,14.33
2022-09-16T12:37:41.969Z,14.40
2022-09-16T12:40:19.915Z,14.02
2022-09-16T12:43:28.193Z,13.54
2022-09-16T12:46:21.325Z,13.16
2022-09-16T12:49:17.457Z,12.87
2022-09-16T12:52:16.299Z,12.82
2022-09-16T12:55:17.731Z,12.83
2022-09-16T12:58:05.776Z,12.77
2022-09-16T13:00:43.343Z,12.64
2022-09-16T13:03:18.792Z,12.46
2022-09-16T13:05:51.494Z,12.46
2022-09-16T13:08:26.099Z,12.58
2022-09-16T13:11:38.704Z,12.16
2022-09-16T13:13:53.115Z,12.30
2022-09-16T13:16:39.662Z,12.44
2022-09-16T13:19:38.793Z,12.53
2022-09-16T13:22:20.860Z,12.61
2022-09-16T13:24:56.484Z,12.44
2022-09-16T13:27:36.951Z,12.15
2022-09-16T13:30:29.621Z,12.02
2022-09-16T13:33:25.209Z,11.89
2022-09-16T13:36:17.765Z,11.92
2022-09-16T13:38:49.874Z,12.19
2022-09-16T13:41:33.692Z,12.33
2022-09-16T13:44:03.863Z,12.47
2022-09-16T13:46:38.665Z,12.68
2022-09-16T13:49:28.241Z,12.85
2022-09-16T13:51:58.055Z,12.72
2022-09-16T13:54:43.229Z,12.85
2022-09-16T13:58:01.753Z,12.73
2022-09-16T14:00:39.145Z,12.95
2022-09-16T14:03:36.216Z,13.00
2022-09-16T14:06:23.646Z,13.35
2022-09-16T14:09:01.970Z,13.32
2022-09-16T14:11:40.342Z,13.22
2022-09-16T14:14:36.295Z,13.24
2022-09-16T14:17:08.614Z,13.26
2022-09-16T14:19:41.575Z,13.24
2022-09-16T14:22:22.611Z,13.20
2022-09-16T14:25:00.945Z,13.14
2022-09-16T14:27:44.237Z,13.10
2022-09-16T14:30:18.647Z,13.24
2022-09-16T14:32:51.338Z,13.37
2022-09-16T14:35:24.374Z,13.78
2022-09-16T14:38:01.288Z,13.88
2022-09-16T14:40:32.327Z,14.03
2022-09-16T14:43:06.086Z,13.99
2022-09-16T14:45:37.616Z,13.77
2022-09-16T14:48:11.320Z,13.65
2022-09-16T14:50:42.267Z,13.63
2022-09-16T14:53:35.357Z,13.84
2022-09-16T14:56:06.535Z,14.02
2022-09-16T14:58:36.954Z,14.25
2022-09-16T15:01:13.255Z,14.26
2022-09-16T15:03:48.349Z,14.22
2022-09-16T15:06:20.953Z,14.04
2022-09-16T15:08:58.734Z,14.25
2022-09-16T15:11:48.730Z,14.52
2022-09-16T15:14:19.637Z,14.51
2022-09-16T15:16:52.483Z,14.65
2022-09-16T15:19:24.875Z,14.86
2022-09-16T15:21:56.330Z,15.20
2022-09-16T15:24:31.019Z,14.82
2022-09-16T15:27:02.165Z,14.51
2022-09-16T15:29:35.383Z,14.31
2022-09-16T15:32:23.398Z,14.19
2022-09-16T15:35:16.979Z,14.14
2022-09-16T15:37:46.819Z,14.17
2022-09-16T15:40:36.506Z,14.21
2022-09-16T15:43:15.262Z,14.19
2022-09-16T15:45:46.267Z,14.16
2022-09-16T15:48:20.596Z,14.02
2022-09-16T15:50:54.541Z,14.02
2022-09-16T15:53:37.061Z,13.96
2022-09-16T15:56:12.428Z,13.91
2022-09-16T15:58:44.978Z,13.92
2022-09-16T16:01:19.533Z,13.93
2022-09-16T16:03:57.209Z,13.90
2022-09-16T16:06:52.155Z,14.00
2022-09-16T16:09:52.643Z,14.00
2022-09-16T16:12:24.962Z,14.02
2022-09-16T16:14:55.156Z,13.96
2022-09-16T16:17:26.548Z,13.96
2022-09-16T16:19:58.573Z,13.93
2022-09-16T16:22:29.046Z,13.95
2022-09-16T16:24:58.747Z,14.02
2022-09-16T16:27:31.135Z,14.06
2022-09-16T16:30:00.962Z,12.96
2022-09-16T16:32:31.758Z,12.64
2022-09-16T16:35:04.466Z,12.61
2022-09-16T16:37:45.921Z,12.63
2022-09-16T16:40:17.170Z,12.57
2022-09-16T16:42:49.626Z,12.58
2022-09-16T16:45:19.552Z,12.62
2022-09-16T16:47:49.557Z,12.64
2022-09-16T16:50:19.376Z,12.72
2022-09-16T16:52:53.231Z,12.72
2022-09-16T16:55:22.968Z,12.73
2022-09-16T16:57:56.178Z,12.72
2022-09-16T17:00:26.284Z,12.72
2022-09-16T17:02:56.117Z,12.66
2022-09-16T17:05:26.015Z,12.58
2022-09-16T17:07:56.245Z,12.57
2022-09-16T17:10:26.518Z,12.61
2022-09-16T17:12:59.418Z,12.64
2022-09-16T17:15:29.922Z,12.68
2022-09-16T17:18:00.039Z,12.66
2022-09-16T17:20:30.574Z,12.57
2022-09-16T17:23:00.172Z,12.56
2022-09-16T17:25:30.154Z,12.56
2022-09-16T17:28:02.558Z,12.72
2022-09-16T17:30:32.204Z,12.70
2022-09-16T17:33:02.332Z,12.84
2022-09-16T17:35:32.269Z,12.79
2022-09-16T17:38:06.709Z,12.75
2022-09-16T17:40:37.930Z,12.70
2022-09-16T17:43:10.306Z,12.64
2022-09-16T17:45:40.598Z,12.62
2022-09-16T17:48:10.412Z,12.54
2022-09-16T17:50:41.671Z,12.49
2022-09-16T17:53:11.229Z,12.53
2022-09-16T17:55:41.108Z,12.47
2022-09-16T17:58:13.271Z,12.52
2022-09-16T18:00:42.842Z,12.48
2022-09-16T18:03:14.631Z,12.52
2022-09-16T18:05:45.199Z,12.47
2022-09-16T18:08:15.068Z,12.55
2022-09-16T18:10:44.791Z,12.49
2022-09-16T18:13:17.095Z,12.44
2022-09-16T18:15:46.648Z,12.59
2022-09-16T18:18:17.590Z,12.47
2022-09-16T18:20:47.153Z,12.46
2022-09-16T18:23:16.719Z,12.41
2022-09-16T18:25:46.613Z,12.37
2022-09-16T18:28:19.066Z,12.34
2022-09-16T18:30:48.728Z,12.34
2022-09-16T18:33:18.309Z,12.37
2022-09-16T18:35:47.887Z,12.37
2022-09-16T18:38:17.938Z,12.31
2022-09-16T18:40:47.632Z,12.32
2022-09-16T18:43:20.186Z,12.32
2022-09-16T18:45:49.843Z,12.29
2022-09-16T18:48:19.770Z,12.35
2022-09-16T18:50:51.775Z,12.52
2022-09-16T18:53:21.361Z,12.35
2022-09-16T18:55:50.960Z,12.18
2022-09-16T18:58:23.158Z,12.00
2022-09-16T19:00:52.951Z,11.99
2022-09-16T19:03:24.197Z,11.95
2022-09-16T19:05:58.328Z,11.89
2022-09-16T19:08:28.332Z,11.88
2022-09-16T19:10:58.279Z,11.89
2022-09-16T19:13:30.644Z,11.80
2022-09-16T19:16:00.611Z,11.75
2022-09-16T19:18:31.308Z,11.74
2022-09-16T19:21:00.999Z,11.75
2022-09-16T19:23:30.828Z,11.75
2022-09-16T19:26:05.183Z,11.77
2022-09-16T19:28:37.446Z,11.85
2022-09-16T19:31:07.986Z,11.76
2022-09-16T19:33:38.203Z,11.67
2022-09-16T19:36:13.958Z,11.65
2022-09-16T19:38:44.387Z,11.63
2022-09-16T19:41:14.506Z,11.62
2022-09-16T19:43:46.865Z,11.68
2022-09-16T19:46:18.268Z,11.86
2022-09-16T19:48:49.656Z,11.96
2022-09-16T19:51:22.650Z,11.98
2022-09-16T19:53:53.482Z,11.90
2022-09-16T19:56:25.874Z,11.79
2022-09-16T19:58:58.519Z,11.78
2022-09-16T20:01:30.466Z,11.80
2022-09-16T20:04:00.656Z,11.79
2022-09-16T20:06:32.695Z,11.96
2022-09-16T20:09:04.112Z,12.09
2022-09-16T20:11:35.687Z,11.99
2022-09-16T20:14:10.036Z,11.75
2022-09-16T20:16:41.258Z,11.36
2022-09-16T20:19:13.135Z,11.12
2022-09-16T20:21:43.135Z,11.10
2022-09-16T20:24:18.343Z,11.10
2022-09-16T20:26:49.920Z,11.09
2022-09-16T20:29:23.428Z,11.21
2022-09-16T20:31:55.003Z,11.27
2022-09-16T20:34:25.113Z,11.33
2022-09-16T20:36:54.725Z,11.29
2022-09-16T20:39:25.041Z,11.25
2022-09-16T20:41:54.781Z,11.20
2022-09-16T20:44:27.233Z,11.19
2022-09-16T20:46:56.826Z,11.15
2022-09-16T20:49:26.971Z,11.14
2022-09-16T20:51:56.575Z,11.22
2022-09-16T20:54:26.276Z,11.29
2022-09-16T20:56:56.527Z,11.39
2022-09-16T20:59:30.108Z,11.35
2022-09-16T21:02:04.103Z,11.33
2022-09-16T21:04:34.089Z,11.34
2022-09-16T21:07:03.970Z,11.28
2022-09-16T21:09:33.979Z,11.33
2022-09-16T21:12:05.944Z,11.31
2022-09-16T21:14:38.395Z,11.34
2022-09-16T21:17:08.305Z,11.40
2022-09-16T21:19:38.014Z,11.43
2022-09-16T21:22:07.945Z,11.48
2022-09-16T21:24:38.534Z,11.44
2022-09-16T21:27:08.729Z,11.40
2022-09-16T21:29:41.155Z,11.33
2022-09-16T21:32:10.999Z,11.26
2022-09-16T21:34:40.794Z,11.20
2022-09-16T21:37:10.601Z,11.22
2022-09-16T21:39:40.514Z,11.23
2022-09-16T21:42:10.532Z,11.21
2022-09-16T21:44:42.847Z,11.21
2022-09-16T21:47:13.057Z,11.20
2022-09-16T21:49:42.567Z,11.17
2022-09-16T21:52:12.795Z,11.12
2022-09-16T21:54:42.574Z,11.10
2022-09-16T21:57:14.547Z,11.05
2022-09-16T21:59:46.907Z,11.01
2022-09-16T22:02:16.643Z,11.05
2022-09-16T22:04:46.555Z,11.05
2022-09-16T22:07:16.196Z,11.06
2022-09-16T22:09:45.963Z,11.07
2022-09-16T22:12:15.565Z,11.07
2022-09-16T22:14:47.958Z,11.14
2022-09-16T22:17:18.520Z,11.16
2022-09-16T22:19:48.078Z,11.10
2022-09-16T22:22:17.830Z,11.09
2022-09-16T22:24:49.752Z,11.20
2022-09-16T22:27:19.589Z,11.26
2022-09-16T22:29:52.046Z,11.20
2022-09-16T22:32:21.632Z,11.16
2022-09-16T22:34:51.741Z,11.17
2022-09-16T22:37:22.093Z,11.12
2022-09-16T22:39:52.012Z,11.07
2022-09-16T22:42:21.689Z,11.09
2022-09-16T22:44:53.925Z,11.02
2022-09-16T22:47:25.565Z,11.04
2022-09-16T22:49:55.323Z,11.05
2022-09-16T22:52:25.622Z,11.04
2022-09-16T22:54:55.877Z,11.08
2022-09-16T22:57:25.603Z,11.07
2022-09-16T22:59:59.070Z,11.23
2022-09-16T23:02:29.473Z,11.16
2022-09-16T23:04:59.488Z,11.10
2022-09-16T23:07:30.232Z,11.07
2022-09-16T23:10:05.263Z,11.09
2022-09-16T23:12:38.455Z,11.11
2022-09-16T23:15:11.847Z,11.05
2022-09-16T23:17:43.478Z,11.05
2022-09-16T23:20:13.503Z,11.06
2022-09-16T23:22:44.171Z,11.00
2022-09-16T23:25:16.363Z,11.01
2022-09-16T23:27:51.246Z,11.13
2022-09-16T23:30:23.870Z,11.28
2022-09-16T23:32:53.576Z,11.23
2022-09-16T23:35:23.347Z,11.29
2022-09-16T23:37:53.566Z,11.48
2022-09-16T23:40:23.601Z,11.47
2022-09-16T23:42:53.659Z,11.32
2022-09-16T23:45:26.292Z,11.06
2022-09-16T23:47:55.906Z,10.99
2022-09-16T23:50:25.599Z,10.84
2022-09-16T23:52:55.375Z,10.76
2022-09-16T23:55:25.346Z,10.69
2022-09-16T23:57:55.239Z,10.58
